Impacts METAR Board
IDs:

KMSP - Minneapolis-St Paul, MN, US

Updated at: 0400 UTC 22 Apr 2018
Potential Impact None Slight Moderate High
Time 21/16Z 21/17Z 21/18Z 21/19Z 21/20Z 21/21Z 21/22Z 21/23Z 22/00Z 22/01Z 22/02Z 22/03Z 22/04Z
Temp50 52 55 57 58 59 58 58 58 56 52 52 51
Dewpt25 22 14 19 21 18 15 15 17 25 29 34 33
Altim30.43 30.41 30.39 30.37 30.36 30.34 30.33 30.33 30.33 30.33 30.34 30.36 30.36
VIS10 10 10 10 10 10 10 10 10 10 10 10 10
CIG-- -- -- -- -- -- -- -- -- -- -- -- --
CoverSCTSCTSCTSCTSCTSCTFEWFEWFEWCLRCLRCLRCLR
FltCatVFRVFRVFRVFRVFRVFRVFRVFRVFRVFRVFRVFRVFR
WX--------------------------
WDir013003100018000220300210210
WSpd0 4 0 4 0 4 5 5 3 6 4 5 4
WGst-- -- -- -- -- -- -- -- -- -- -- -- --
Raw hourly METARs
KMSP 211553Z 00000KT 10SM SCT300 10/M04 A3043 RMK AO2 SLP309 T01001039
KMSP 211653Z 13004KT 10SM SCT300 11/M06 A3041 RMK AO2 SLP304 T01111056
KMSP 211753Z 00000KT 10SM SCT300 13/M10 A3039 RMK AO2 SLP295 4/001 T01281100 10128 20033 58015
KMSP 211853Z 31004KT 10SM SCT300 14/M07 A3037 RMK AO2 SLP290 T01391072
KMSP 211953Z 00000KT 10SM SCT300 14/M06 A3036 RMK AO2 SLP287 T01441061
KMSP 212053Z VRB04KT 10SM SCT300 15/M08 A3034 RMK AO2 SLP280 T01501078 58015
KMSP 212153Z 18005KT 10SM FEW300 14/M09 A3033 RMK AO2 SLP275 T01441094
KMSP 212253Z VRB05KT 10SM FEW300 14/M09 A3033 RMK AO2 SLP274 T01441094
KMSP 212353Z VRB03KT 10SM FEW300 14/M08 A3033 RMK AO2 SLP274 T01441083 10156 20128 56006
KMSP 220053Z 22006KT 10SM CLR 13/M04 A3033 RMK AO2 SLP275 T01331039
KMSP 220153Z 30004KT 10SM CLR 11/M02 A3034 RMK AO2 SLP281 T01111017
KMSP 220253Z 21005KT 10SM CLR 11/01 A3036 RMK AO2 SLP285 T01110011 53012
KMSP 220353Z 21004KT 10SM CLR 11/01 A3036 RMK AO2 SLP284 T01060006



Page loaded:  04:41 UTC  |   09:41 PM Pacific  |   10:41 PM Mountain  |   11:41 PM Central  |   12:41 AM Eastern

 

ADVISORIES

FORECASTS

FORECASTS

OBSERVATIONS

USER TOOLS

ABOUT US